createdAt,value
2023-02-08T00:01:22.355Z,99.90
2023-02-08T00:03:52.523Z,99.90
2023-02-08T00:06:20.055Z,99.90
2023-02-08T00:08:49.918Z,99.90
2023-02-08T00:11:19.690Z,99.90
2023-02-08T00:13:47.495Z,99.90
2023-02-08T00:16:15.941Z,99.90
2023-02-08T00:18:45.550Z,99.90
2023-02-08T00:21:15.453Z,99.90
2023-02-08T00:23:46.361Z,99.90
2023-02-08T00:26:14.918Z,99.90
2023-02-08T00:28:42.344Z,99.90
2023-02-08T00:31:09.719Z,99.90
2023-02-08T00:33:37.182Z,99.90
2023-02-08T00:36:07.971Z,99.90
2023-02-08T00:38:36.135Z,99.90
2023-02-08T00:41:03.878Z,99.90
2023-02-08T00:43:31.193Z,99.90
2023-02-08T00:45:59.846Z,99.90
2023-02-08T00:48:27.998Z,99.90
2023-02-08T00:51:02.702Z,99.90
2023-02-08T00:53:30.511Z,99.90
2023-02-08T00:56:00.214Z,99.90
2023-02-08T00:58:27.504Z,99.90
2023-02-08T01:00:57.049Z,99.90
2023-02-08T01:03:27.568Z,99.90
2023-02-08T01:05:54.899Z,99.90
2023-02-08T01:08:22.274Z,99.90
2023-02-08T01:10:51.994Z,99.90
2023-02-08T01:13:21.482Z,99.90
2023-02-08T01:15:48.709Z,99.90
2023-02-08T01:18:15.960Z,99.90
2023-02-08T01:20:43.241Z,99.90
2023-02-08T01:23:10.623Z,99.90
2023-02-08T01:25:39.977Z,99.90
2023-02-08T01:28:07.284Z,99.90
2023-02-08T01:30:37.041Z,99.90
2023-02-08T01:33:06.733Z,99.90
2023-02-08T01:35:36.450Z,99.90
2023-02-08T01:38:05.976Z,99.90
2023-02-08T01:40:38.399Z,99.90
2023-02-08T01:43:20.980Z,99.90
2023-02-08T01:45:50.903Z,99.90
2023-02-08T01:48:34.258Z,99.90
2023-02-08T01:51:04.297Z,99.90
2023-02-08T01:53:36.509Z,99.90
2023-02-08T01:56:08.313Z,99.90
2023-02-08T01:58:41.931Z,99.90
2023-02-08T02:01:13.089Z,99.90
2023-02-08T02:03:43.485Z,99.90
2023-02-08T02:06:15.446Z,99.90
2023-02-08T02:09:00.245Z,99.90
2023-02-08T02:11:29.068Z,99.90
2023-02-08T02:13:57.623Z,99.90
2023-02-08T02:16:24.888Z,99.90
2023-02-08T02:18:52.360Z,99.90
2023-02-08T02:21:44.630Z,99.90
2023-02-08T02:24:30.140Z,99.90
2023-02-08T02:27:32.543Z,99.90
2023-02-08T02:30:34.581Z,99.90
2023-02-08T02:33:28.661Z,99.90
2023-02-08T02:36:26.457Z,99.90
2023-02-08T02:39:14.470Z,99.90
2023-02-08T02:42:29.126Z,99.90
2023-02-08T02:45:01.936Z,99.90
2023-02-08T02:47:49.732Z,99.90
2023-02-08T02:50:43.494Z,99.90
2023-02-08T02:53:28.095Z,99.90
2023-02-08T02:56:01.509Z,99.90
2023-02-08T02:58:30.993Z,99.90
2023-02-08T03:01:02.018Z,99.90
2023-02-08T03:03:33.803Z,99.90
2023-02-08T03:06:04.928Z,99.90
2023-02-08T03:09:00.912Z,99.90
2023-02-08T03:11:34.196Z,99.90
2023-02-08T03:14:13.475Z,99.90
2023-02-08T03:17:04.631Z,99.90
2023-02-08T03:19:48.992Z,99.90
2023-02-08T03:22:42.475Z,99.90
2023-02-08T03:25:17.830Z,99.90
2023-02-08T03:28:01.689Z,99.90
2023-02-08T03:30:39.074Z,99.90
2023-02-08T03:33:17.317Z,99.90
2023-02-08T03:35:57.384Z,99.90
2023-02-08T03:38:37.928Z,99.90
2023-02-08T03:41:07.874Z,99.90
2023-02-08T03:44:16.216Z,99.90
2023-02-08T03:46:54.117Z,99.90
2023-02-08T03:49:30.410Z,99.90
2023-02-08T03:52:01.898Z,99.90
2023-02-08T03:54:35.184Z,99.90
2023-02-08T03:57:25.475Z,99.90
2023-02-08T04:00:02.338Z,99.90
2023-02-08T04:02:33.938Z,99.90
2023-02-08T04:05:01.956Z,99.90
2023-02-08T04:07:31.640Z,99.90
2023-02-08T04:09:58.981Z,99.90
2023-02-08T04:12:26.278Z,99.90
2023-02-08T04:14:55.872Z,99.90
2023-02-08T04:17:23.395Z,99.90
2023-02-08T04:19:52.755Z,99.90
2023-02-08T04:22:22.566Z,99.90
2023-02-08T04:24:52.268Z,99.90
2023-02-08T04:27:19.702Z,99.90
2023-02-08T04:29:49.339Z,99.90
2023-02-08T04:32:16.651Z,99.90
2023-02-08T04:34:43.896Z,99.90
2023-02-08T04:37:11.998Z,99.90
2023-02-08T04:39:41.532Z,99.90
2023-02-08T04:42:09.348Z,99.90
2023-02-08T04:44:39.008Z,99.90
2023-02-08T04:47:06.309Z,99.90
2023-02-08T04:49:33.576Z,99.90
2023-02-08T04:52:00.904Z,99.90
2023-02-08T04:54:28.204Z,99.90
2023-02-08T04:56:57.976Z,99.90
2023-02-08T04:59:25.266Z,99.90
2023-02-08T05:01:52.590Z,99.90
2023-02-08T05:04:19.811Z,99.90
2023-02-08T05:06:51.992Z,99.90
2023-02-08T05:09:19.290Z,99.90
2023-02-08T05:11:46.541Z,99.90
2023-02-08T05:14:13.831Z,99.90
2023-02-08T05:16:43.200Z,99.90
2023-02-08T05:19:12.012Z,99.90
2023-02-08T05:21:41.908Z,99.90
2023-02-08T05:24:12.928Z,99.90
2023-02-08T05:26:41.157Z,99.90
2023-02-08T05:29:08.607Z,99.90
2023-02-08T05:31:35.982Z,99.90
2023-02-08T05:34:05.767Z,99.90
2023-02-08T05:36:33.211Z,99.90
2023-02-08T05:39:03.041Z,99.90
2023-02-08T05:41:32.453Z,99.90
2023-02-08T05:44:02.243Z,99.90
2023-02-08T05:46:29.611Z,99.90
2023-02-08T05:48:59.274Z,99.90
2023-02-08T05:51:28.753Z,99.90
2023-02-08T05:53:56.007Z,99.90
2023-02-08T05:56:23.242Z,99.90
2023-02-08T05:58:50.542Z,99.90
2023-02-08T06:01:18.341Z,99.90
2023-02-08T06:03:48.595Z,99.90
2023-02-08T06:06:15.859Z,99.90
2023-02-08T06:08:43.106Z,99.90
2023-02-08T06:11:10.497Z,99.90
2023-02-08T06:13:40.188Z,99.90
2023-02-08T06:16:09.940Z,99.90
2023-02-08T06:18:39.747Z,99.90
2023-02-08T06:21:06.976Z,99.90
2023-02-08T06:23:34.286Z,99.90
2023-02-08T06:26:01.870Z,99.90
2023-02-08T06:28:29.156Z,99.90
2023-02-08T06:30:56.466Z,99.90
2023-02-08T06:33:23.664Z,99.90
2023-02-08T06:35:56.098Z,99.90
2023-02-08T06:38:23.312Z,99.90
2023-02-08T06:40:53.263Z,99.90
2023-02-08T06:43:20.671Z,99.90
2023-02-08T06:45:50.536Z,99.90
2023-02-08T06:48:17.817Z,99.90
2023-02-08T06:50:45.082Z,99.90
2023-02-08T06:53:12.334Z,99.90
2023-02-08T06:55:39.610Z,99.90
2023-02-08T06:58:09.825Z,99.90
2023-02-08T07:00:39.738Z,99.90
2023-02-08T07:03:07.161Z,99.90
2023-02-08T07:05:37.925Z,99.90
2023-02-08T07:08:08.953Z,99.90
2023-02-08T07:10:39.332Z,99.90
2023-02-08T07:13:11.527Z,99.90
2023-02-08T07:15:41.253Z,99.90
2023-02-08T07:18:08.502Z,99.90
2023-02-08T07:20:38.444Z,99.90
2023-02-08T07:23:05.844Z,99.90
2023-02-08T07:25:35.627Z,99.90
2023-02-08T07:28:03.012Z,99.90
2023-02-08T07:30:32.656Z,99.90
2023-02-08T07:32:59.905Z,99.90
2023-02-08T07:35:27.311Z,99.90
2023-02-08T07:37:54.723Z,99.90
2023-02-08T07:40:21.993Z,99.90
2023-02-08T07:42:51.456Z,99.90
2023-02-08T07:45:18.793Z,99.90
2023-02-08T07:47:46.694Z,99.90
2023-02-08T07:50:16.300Z,99.90
2023-02-08T07:52:46.036Z,99.90
2023-02-08T07:55:17.194Z,99.90
2023-02-08T07:57:49.044Z,99.90
2023-02-08T08:00:18.119Z,99.90
2023-02-08T08:02:45.356Z,99.90
2023-02-08T08:05:12.652Z,99.90
2023-02-08T08:07:39.937Z,99.90
2023-02-08T08:10:07.481Z,99.90
2023-02-08T08:12:35.103Z,99.90
2023-02-08T08:15:02.417Z,99.90
2023-02-08T08:17:31.783Z,99.90
2023-02-08T08:20:03.481Z,99.90
2023-02-08T08:22:30.823Z,99.90
2023-02-08T08:24:58.741Z,99.90
2023-02-08T08:27:28.404Z,99.90
2023-02-08T08:29:59.832Z,99.90
2023-02-08T08:32:27.314Z,99.90
2023-02-08T08:34:54.562Z,99.90
2023-02-08T08:37:21.778Z,99.90
2023-02-08T08:39:49.060Z,99.90
2023-02-08T08:42:18.567Z,99.90
2023-02-08T08:44:48.169Z,99.90
2023-02-08T08:47:15.704Z,99.90
2023-02-08T08:49:45.400Z,99.90
2023-02-08T08:52:13.532Z,99.90
2023-02-08T08:54:40.781Z,99.90
2023-02-08T08:57:08.197Z,99.90
2023-02-08T08:59:39.959Z,99.90
2023-02-08T09:02:07.297Z,99.90
2023-02-08T09:04:34.723Z,99.90
2023-02-08T09:07:01.974Z,99.90
2023-02-08T09:09:29.225Z,98.00
2023-02-08T09:11:56.496Z,95.30
2023-02-08T09:14:23.782Z,91.30
2023-02-08T09:16:55.982Z,87.10
2023-02-08T09:19:23.340Z,81.70
2023-02-08T09:21:50.844Z,79.80
2023-02-08T09:24:18.283Z,77.00
2023-02-08T09:26:46.391Z,76.80
2023-02-08T09:29:13.632Z,70.70
2023-02-08T09:31:43.469Z,70.70
2023-02-08T09:34:10.811Z,66.30
2023-02-08T09:36:40.479Z,63.90
2023-02-08T09:39:17.266Z,62.90
2023-02-08T09:42:26.608Z,62.80
2023-02-08T09:45:07.876Z,61.50
2023-02-08T09:47:42.493Z,58.70
2023-02-08T09:50:35.829Z,59.40
2023-02-08T09:53:11.695Z,57.40
2023-02-08T09:55:58.069Z,56.00
2023-02-08T09:58:33.583Z,57.00
2023-02-08T10:01:07.508Z,54.40
2023-02-08T10:03:41.868Z,55.90
2023-02-08T10:06:14.538Z,52.80
2023-02-08T10:08:45.766Z,51.00
2023-02-08T10:11:34.940Z,52.10
2023-02-08T10:14:08.057Z,50.70
2023-02-08T10:17:01.323Z,50.60
2023-02-08T10:20:01.216Z,49.30
2023-02-08T10:22:57.044Z,51.00
2023-02-08T10:25:51.298Z,49.50
2023-02-08T10:28:39.397Z,48.90
2023-02-08T10:31:28.878Z,49.30
2023-02-08T10:34:18.499Z,47.30
2023-02-08T10:36:46.439Z,47.40
2023-02-08T10:39:28.900Z,47.90
2023-02-08T10:41:58.581Z,48.90
2023-02-08T10:44:41.364Z,47.70
2023-02-08T10:47:28.970Z,48.10
2023-02-08T10:50:36.329Z,46.50
2023-02-08T10:53:05.179Z,46.60
2023-02-08T10:55:36.386Z,46.30
2023-02-08T10:58:05.612Z,47.20
2023-02-08T11:00:37.359Z,45.50
2023-02-08T11:03:16.074Z,43.00
2023-02-08T11:05:45.729Z,45.00
2023-02-08T11:08:23.213Z,42.30
2023-02-08T11:11:10.154Z,44.10
2023-02-08T11:13:43.427Z,45.90
2023-02-08T11:16:29.576Z,48.30
2023-02-08T11:18:59.418Z,46.90
2023-02-08T11:21:29.867Z,46.80
2023-02-08T11:23:58.397Z,44.60
2023-02-08T11:26:35.938Z,42.00
2023-02-08T11:29:15.544Z,43.30
2023-02-08T11:32:02.329Z,40.90
2023-02-08T11:34:43.393Z,41.10
2023-02-08T11:37:26.072Z,43.30
2023-02-08T11:40:01.928Z,41.70
2023-02-08T11:42:35.375Z,41.10
2023-02-08T11:45:04.899Z,39.90
2023-02-08T11:47:35.213Z,37.30
2023-02-08T11:50:05.658Z,38.80
2023-02-08T11:52:39.434Z,38.20
2023-02-08T11:55:18.470Z,39.30
2023-02-08T11:58:04.608Z,36.90
2023-02-08T12:00:41.892Z,37.50
2023-02-08T12:03:33.690Z,34.40
2023-02-08T12:06:24.910Z,35.10
2023-02-08T12:08:58.016Z,34.20
2023-02-08T12:11:56.912Z,33.30
2023-02-08T12:14:35.995Z,32.90
2023-02-08T12:17:18.160Z,32.70
2023-02-08T12:20:30.131Z,31.40
2023-02-08T12:23:18.752Z,30.60
2023-02-08T12:25:53.338Z,30.20
2023-02-08T12:28:33.261Z,30.40
2023-02-08T12:31:32.975Z,31.70
2023-02-08T12:34:21.787Z,31.50
2023-02-08T12:37:14.891Z,31.20
2023-02-08T12:40:31.231Z,30.60
2023-02-08T12:43:30.987Z,32.90
2023-02-08T12:46:22.224Z,33.40
2023-02-08T12:48:52.321Z,32.50
2023-02-08T12:51:44.700Z,31.10
2023-02-08T12:54:35.943Z,32.40
2023-02-08T12:57:05.627Z,33.60
2023-02-08T12:59:35.616Z,32.90
2023-02-08T13:02:18.361Z,31.20
2023-02-08T13:04:52.165Z,31.20
2023-02-08T13:07:35.362Z,30.50
2023-02-08T13:10:16.109Z,31.30
2023-02-08T13:12:49.598Z,32.80
2023-02-08T13:15:42.224Z,32.20
2023-02-08T13:18:18.730Z,31.90
2023-02-08T13:20:53.691Z,31.20
2023-02-08T13:23:38.490Z,32.40
2023-02-08T13:26:24.554Z,31.10
2023-02-08T13:29:01.263Z,31.00
2023-02-08T13:31:39.002Z,31.60
2023-02-08T13:34:25.147Z,32.70
2023-02-08T13:36:57.404Z,32.60
2023-02-08T13:39:33.523Z,32.80
2023-02-08T13:42:03.287Z,33.50
2023-02-08T13:44:39.200Z,32.20
2023-02-08T13:47:07.869Z,32.80
2023-02-08T13:49:50.081Z,31.70
2023-02-08T13:52:48.683Z,32.10
2023-02-08T13:55:41.522Z,32.10
2023-02-08T13:58:16.920Z,32.00
2023-02-08T14:01:15.083Z,34.30
2023-02-08T14:03:42.745Z,33.30
2023-02-08T14:06:28.146Z,32.90
2023-02-08T14:09:27.647Z,32.20
2023-02-08T14:12:01.094Z,30.90
2023-02-08T14:14:32.398Z,31.70
2023-02-08T14:17:10.051Z,32.50
2023-02-08T14:19:42.868Z,30.50
2023-02-08T14:22:13.114Z,32.30
2023-02-08T14:24:44.350Z,32.30
2023-02-08T14:27:25.418Z,35.40
2023-02-08T14:30:11.386Z,33.60
2023-02-08T14:32:42.090Z,34.30
2023-02-08T14:35:21.893Z,36.10
2023-02-08T14:37:58.346Z,34.30
2023-02-08T14:40:35.056Z,33.50
2023-02-08T14:43:23.038Z,33.70
2023-02-08T14:45:55.185Z,33.20
2023-02-08T14:48:48.538Z,36.40
2023-02-08T14:51:28.908Z,35.90
2023-02-08T14:54:03.456Z,38.20
2023-02-08T14:56:37.606Z,39.70
2023-02-08T14:59:17.554Z,37.20
2023-02-08T15:02:12.747Z,37.00
2023-02-08T15:04:44.688Z,36.60
2023-02-08T15:07:33.082Z,36.80
2023-02-08T15:10:04.317Z,36.40
2023-02-08T15:12:39.924Z,36.70
2023-02-08T15:15:20.447Z,36.00
2023-02-08T15:17:50.629Z,35.00
2023-02-08T15:20:22.020Z,35.60
2023-02-08T15:22:49.319Z,34.90
2023-02-08T15:25:24.745Z,34.90
2023-02-08T15:28:01.185Z,37.50
2023-02-08T15:30:37.367Z,36.30
2023-02-08T15:33:14.464Z,37.30
2023-02-08T15:35:43.687Z,37.00
2023-02-08T15:38:23.043Z,36.60
2023-02-08T15:41:08.895Z,38.10
2023-02-08T15:43:40.436Z,37.20
2023-02-08T15:46:25.688Z,37.50
2023-02-08T15:48:54.784Z,37.20
2023-02-08T15:51:24.353Z,38.50
2023-02-08T15:53:56.982Z,38.40
2023-02-08T15:56:41.319Z,38.40
2023-02-08T15:59:20.926Z,38.80
2023-02-08T16:01:49.325Z,37.70
2023-02-08T16:04:17.413Z,40.10
2023-02-08T16:06:59.178Z,42.30
2023-02-08T16:09:28.998Z,41.60
2023-02-08T16:12:02.400Z,41.60
2023-02-08T16:14:32.797Z,42.10
2023-02-08T16:17:39.686Z,42.80
2023-02-08T16:20:33.824Z,44.20
2023-02-08T16:23:25.727Z,43.70
2023-02-08T16:25:55.523Z,44.60
2023-02-08T16:28:32.168Z,46.80
2023-02-08T16:31:04.210Z,48.20
2023-02-08T16:33:37.396Z,50.40
2023-02-08T16:36:07.394Z,50.20
2023-02-08T16:38:34.893Z,51.20
2023-02-08T16:41:15.205Z,52.00
2023-02-08T16:43:47.780Z,54.00
2023-02-08T16:46:21.454Z,57.00
2023-02-08T16:48:53.506Z,56.70
2023-02-08T16:51:28.421Z,56.20
2023-02-08T16:54:01.109Z,56.50
2023-02-08T16:56:28.990Z,57.90
2023-02-08T16:58:58.463Z,59.00
2023-02-08T17:01:26.890Z,55.80
2023-02-08T17:03:54.736Z,55.90
2023-02-08T17:06:26.110Z,59.20
2023-02-08T17:08:53.624Z,61.80
2023-02-08T17:11:20.932Z,62.50
2023-02-08T17:13:52.134Z,62.20
2023-02-08T17:16:22.983Z,63.40
2023-02-08T17:18:51.048Z,65.50
2023-02-08T17:21:19.184Z,67.50
2023-02-08T17:23:47.237Z,69.50
2023-02-08T17:26:29.212Z,65.20
2023-02-08T17:28:59.664Z,65.60
2023-02-08T17:31:31.568Z,67.40
2023-02-08T17:34:04.307Z,70.10
2023-02-08T17:36:34.210Z,68.90
2023-02-08T17:39:02.322Z,72.10
2023-02-08T17:41:29.578Z,72.90
2023-02-08T17:43:57.905Z,71.10
2023-02-08T17:46:27.449Z,74.80
2023-02-08T17:48:59.663Z,72.90
2023-02-08T17:51:27.492Z,77.10
2023-02-08T17:53:54.758Z,78.10
2023-02-08T17:56:28.619Z,77.40
2023-02-08T17:59:00.893Z,74.50
2023-02-08T18:01:28.197Z,79.10
2023-02-08T18:03:58.304Z,78.70
2023-02-08T18:06:30.016Z,78.70
2023-02-08T18:08:59.705Z,81.40
2023-02-08T18:11:31.295Z,84.30
2023-02-08T18:13:59.507Z,85.80
2023-02-08T18:16:30.938Z,84.80
2023-02-08T18:18:59.418Z,85.10
2023-02-08T18:21:26.747Z,86.50
2023-02-08T18:23:55.814Z,86.40
2023-02-08T18:26:24.860Z,87.30
2023-02-08T18:28:52.890Z,89.60
2023-02-08T18:31:21.229Z,89.10
2023-02-08T18:33:55.150Z,90.10
2023-02-08T18:36:23.702Z,88.80
2023-02-08T18:38:53.706Z,90.70
2023-02-08T18:41:26.169Z,91.60
2023-02-08T18:43:57.190Z,92.00
2023-02-08T18:46:29.370Z,93.00
2023-02-08T18:48:56.887Z,94.10
2023-02-08T18:51:25.628Z,93.60
2023-02-08T18:53:55.089Z,94.10
2023-02-08T18:56:26.565Z,94.40
2023-02-08T18:58:56.183Z,94.30
2023-02-08T19:01:24.692Z,94.30
2023-02-08T19:03:54.439Z,95.80
2023-02-08T19:06:25.090Z,95.40
2023-02-08T19:08:54.922Z,96.70
2023-02-08T19:11:27.622Z,97.10
2023-02-08T19:14:03.982Z,98.10
2023-02-08T19:16:33.266Z,98.70
2023-02-08T19:19:01.218Z,98.50
2023-02-08T19:21:33.029Z,98.00
2023-02-08T19:24:02.946Z,97.40
2023-02-08T19:26:37.015Z,98.30
2023-02-08T19:29:06.677Z,98.40
2023-02-08T19:31:34.721Z,98.70
2023-02-08T19:34:03.280Z,97.50
2023-02-08T19:36:33.744Z,98.60
2023-02-08T19:39:02.017Z,99.50
2023-02-08T19:41:33.458Z,99.90
2023-02-08T19:44:05.518Z,99.50
2023-02-08T19:46:38.718Z,98.40
2023-02-08T19:49:07.217Z,98.90
2023-02-08T19:51:36.954Z,99.90
2023-02-08T19:54:07.161Z,99.90
2023-02-08T19:56:34.632Z,97.70
2023-02-08T19:59:04.391Z,98.70
2023-02-08T20:01:33.481Z,99.90
2023-02-08T20:04:03.431Z,99.90
2023-02-08T20:06:39.534Z,99.90
2023-02-08T20:09:09.336Z,99.90
2023-02-08T20:11:55.795Z,99.90
2023-02-08T20:14:28.835Z,99.90
2023-02-08T20:16:59.236Z,99.90
2023-02-08T20:19:31.633Z,99.90
2023-02-08T20:22:06.322Z,99.90
2023-02-08T20:24:33.608Z,99.90
2023-02-08T20:27:03.300Z,99.90
2023-02-08T20:29:35.356Z,99.90
2023-02-08T20:32:02.767Z,99.90
2023-02-08T20:34:30.059Z,99.90
2023-02-08T20:37:12.657Z,99.90
2023-02-08T20:39:39.984Z,99.90
2023-02-08T20:42:07.344Z,99.90
2023-02-08T20:44:36.893Z,99.90
2023-02-08T20:47:04.254Z,99.90
2023-02-08T20:49:32.380Z,99.90
2023-02-08T20:52:00.111Z,99.90
2023-02-08T20:54:29.858Z,99.90
2023-02-08T20:56:59.722Z,99.90
2023-02-08T20:59:30.572Z,99.90
2023-02-08T21:01:57.852Z,99.90
2023-02-08T21:04:26.317Z,99.90
2023-02-08T21:06:53.617Z,99.90
2023-02-08T21:09:23.276Z,99.90
2023-02-08T21:11:53.851Z,99.90
2023-02-08T21:14:25.935Z,99.90
2023-02-08T21:16:58.670Z,99.90
2023-02-08T21:19:29.015Z,99.90
2023-02-08T21:21:58.819Z,99.90
2023-02-08T21:24:28.842Z,99.90
2023-02-08T21:26:57.045Z,99.90
2023-02-08T21:29:25.152Z,99.90
2023-02-08T21:31:54.315Z,99.90
2023-02-08T21:34:22.030Z,99.90
2023-02-08T21:36:54.169Z,99.90
2023-02-08T21:39:23.396Z,99.90
2023-02-08T21:41:52.556Z,99.90
2023-02-08T21:44:22.756Z,99.90
2023-02-08T21:46:50.100Z,99.90
2023-02-08T21:49:36.129Z,99.90
2023-02-08T21:52:22.065Z,99.90
2023-02-08T21:54:53.515Z,99.90
2023-02-08T21:57:23.733Z,99.90
2023-02-08T21:59:58.867Z,99.90
2023-02-08T22:02:28.906Z,99.90
2023-02-08T22:05:20.532Z,99.90
2023-02-08T22:07:57.328Z,99.90
2023-02-08T22:10:27.672Z,99.90
2023-02-08T22:12:55.851Z,99.90
2023-02-08T22:15:25.951Z,99.90
2023-02-08T22:18:01.979Z,99.90
2023-02-08T22:20:29.941Z,99.90
2023-02-08T22:23:00.014Z,99.90
2023-02-08T22:25:27.429Z,99.90
2023-02-08T22:27:56.969Z,99.90
2023-02-08T22:30:25.665Z,99.90
2023-02-08T22:32:55.270Z,99.90
2023-02-08T22:35:22.570Z,99.90
2023-02-08T22:37:49.887Z,99.90
2023-02-08T22:40:19.880Z,99.90
2023-02-08T22:42:50.008Z,99.90
2023-02-08T22:45:17.359Z,99.90
2023-02-08T22:47:46.719Z,99.90
2023-02-08T22:50:14.146Z,99.90
2023-02-08T22:52:43.914Z,99.90
2023-02-08T22:55:12.330Z,99.90
2023-02-08T22:57:43.446Z,99.90
2023-02-08T23:00:13.768Z,99.90
2023-02-08T23:02:41.223Z,99.90
2023-02-08T23:05:08.639Z,99.90
2023-02-08T23:07:38.336Z,99.90
2023-02-08T23:10:05.810Z,99.90
2023-02-08T23:12:35.439Z,99.90
2023-02-08T23:15:05.039Z,99.90
2023-02-08T23:17:32.273Z,99.90
2023-02-08T23:19:59.548Z,99.90
2023-02-08T23:22:31.707Z,99.90
2023-02-08T23:25:01.430Z,99.90
2023-02-08T23:27:28.678Z,99.90
2023-02-08T23:29:58.427Z,99.90
2023-02-08T23:32:27.955Z,99.90
2023-02-08T23:34:55.196Z,99.90
2023-02-08T23:37:22.497Z,99.90
2023-02-08T23:39:49.705Z,99.90
2023-02-08T23:42:25.831Z,99.90
2023-02-08T23:44:57.896Z,99.90
2023-02-08T23:47:28.933Z,99.90
2023-02-08T23:49:59.246Z,99.90
2023-02-08T23:52:26.600Z,99.90
2023-02-08T23:54:53.892Z,99.90
2023-02-08T23:57:23.392Z,99.90
2023-02-08T23:59:53.109Z,99.90
